SCAR METAR and TAF weather

Enter ICAO airport designator
Station Type Date Time Source
SCAR METAR 2019/12/08 03:00 UTC NOAA

SCAR 080300Z 07003KT CAVOK 20/14 Q1016


Station Type Date Time Source
SCAR Decoded METAR 2019/12/08 03:00 UTC NOAA

Arica, Chile (SCAR) 18-20S 070-20W 58M
Dec 07, 2019 - 10:00 PM EST / 2019.12.08 0300 UTC
Wind: from the ENE (070 degrees) at 3 MPH (3 KT):0
Visibility: greater than 7 mile(s):0
Temperature: 68 F (20 C)
Dew Point: 57 F (14 C)
Relative Humidity: 68%
Pressure (altimeter): 30.00 in. Hg (1016 hPa)
ob: SCAR 080300Z 07003KT CAVOK 20/14 Q1016
cycle: 3

Station Type Date Time Source
SCAR TAF 2019/12/08 00:00 UTC NOAA

TAF SCAR 072213Z 0800/0824 20008KT 9999 FEW025 TN19/0810Z TX24/0818Z
BECMG 0804/0806 07004KT BKN030
BECMG 0815/0817 20012KT CAVOK
BECMG 0822/0800 SCT030

Example: see airport list